Terminal Aerodrome Forecast
Issued by NWS

Home | Current Version | Previous Version | Text Only | Print | Product List | Glossary On
Versions: 1 2 3 4 5 6 7 8 9 10 11 12 13
056
FTUS46 KHNX 190356 AAA
TAFFAT
TAF AMD
KFAT 190356Z 1904/1924 30019G26KT P6SM SCT070
     FM191000 32010KT P6SM SCT060 BKN100
     FM192100 31016KT P6SM SCT100=

USA.gov is the U.S. government's official web portal to all federal, state and local government web resources and services.